Time;durP1;ratioP1;P1;durP2;ratioP2;P2;SDS_P1;SDS_P2;PMS_P1;PMS_P2;Temp;Humidity;BMP_temperature;BMP_pressure;BME280_temperature;BME280_humidity;BME280_pressure;Samples;Min_cycle;Max_cycle;Signal;HPM_P1;HPM_P2
2021/12/02 00:01:11;;;;;;;3.10;0.80;;;6.60;99.90;;;;;;5095543;28;20625;-70
2021/12/02 00:03:40;;;;;;;2.80;0.90;;;6.60;99.90;;;;;;5095592;28;20492;-69
2021/12/02 00:06:09;;;;;;;3.63;1.17;;;6.60;99.90;;;;;;5095551;28;20477;-70
2021/12/02 00:08:36;;;;;;;4.07;0.97;;;6.50;99.90;;;;;;5095428;28;20458;-70
2021/12/02 00:11:03;;;;;;;2.20;1.00;;;6.50;99.90;;;;;;5095496;28;20457;-70
2021/12/02 00:13:37;;;;;;;3.53;1.00;;;6.40;99.90;;;;;;5094523;28;20461;-70
2021/12/02 00:16:16;;;;;;;3.57;1.10;;;6.40;99.90;;;;;;5094667;28;20449;-68
2021/12/02 00:21:31;;;;;;;3.97;1.00;;;6.40;99.90;;;;;;5095104;28;20454;-70
2021/12/02 00:24:03;;;;;;;2.50;1.17;;;6.40;99.90;;;;;;5095083;28;20872;-70
2021/12/02 00:26:31;;;;;;;3.53;0.97;;;6.30;99.90;;;;;;5095241;28;20441;-70
2021/12/02 00:29:01;;;;;;;4.73;1.30;;;6.30;99.90;;;;;;5095033;28;20461;-70
2021/12/02 00:31:31;;;;;;;4.13;1.00;;;6.30;99.90;;;;;;5094935;28;20464;-70
2021/12/02 00:34:01;;;;;;;4.03;1.00;;;6.40;99.90;;;;;;5094871;28;20439;-69
2021/12/02 00:36:30;;;;;;;2.23;0.77;;;6.30;99.90;;;;;;5094953;28;20484;-70
2021/12/02 00:38:57;;;;;;;2.37;1.00;;;6.30;99.90;;;;;;5095652;28;20462;-70
2021/12/02 00:41:27;;;;;;;2.70;0.83;;;6.00;99.90;;;;;;5094686;28;20760;-70
2021/12/02 00:43:56;;;;;;;10.53;1.23;;;5.70;99.90;;;;;;5094682;28;21041;-70
2021/12/02 00:46:26;;;;;;;5.13;1.10;;;5.40;99.90;;;;;;5094436;28;20466;-71
2021/12/02 00:48:53;;;;;;;1.90;0.97;;;5.20;99.90;;;;;;5094938;28;20542;-71
2021/12/02 00:51:22;;;;;;;1.77;0.93;;;5.00;99.90;;;;;;5094824;28;20471;-71
2021/12/02 00:53:52;;;;;;;1.83;0.80;;;4.70;99.90;;;;;;5094877;28;20478;-71
2021/12/02 00:56:24;;;;;;;3.50;1.00;;;4.50;99.90;;;;;;5094610;28;20449;-71
2021/12/02 00:58:54;;;;;;;1.20;1.00;;;4.20;99.90;;;;;;5094739;28;20446;-70
2021/12/02 01:01:23;;;;;;;2.40;1.13;;;4.10;99.90;;;;;;5094367;28;20914;-70
2021/12/02 01:03:55;;;;;;;2.20;0.80;;;4.00;99.90;;;;;;5094374;28;20518;-70
2021/12/02 01:06:25;;;;;;;1.20;0.90;;;4.00;99.90;;;;;;5094727;28;20441;-70
2021/12/02 01:08:52;;;;;;;1.73;0.83;;;3.90;99.90;;;;;;5096221;28;20454;-70
2021/12/02 01:11:19;;;;;;;1.03;0.80;;;3.80;99.90;;;;;;5094845;28;20455;-70
2021/12/02 01:13:46;;;;;;;2.13;0.73;;;3.80;99.90;;;;;;5094849;28;20464;-70
2021/12/02 01:16:14;;;;;;;1.30;0.90;;;3.80;99.90;;;;;;5094558;28;20455;-71
2021/12/02 01:18:41;;;;;;;1.80;0.73;;;3.80;99.90;;;;;;5095287;28;20483;-69
2021/12/02 01:21:13;;;;;;;0.90;0.70;;;3.80;99.90;;;;;;5094713;28;20460;-69
2021/12/02 01:23:41;;;;;;;1.00;0.80;;;3.80;99.90;;;;;;5094302;28;20494;-69
2021/12/02 01:26:10;;;;;;;1.20;0.90;;;3.90;99.90;;;;;;5096923;28;20461;-69
2021/12/02 01:28:38;;;;;;;1.30;0.70;;;4.10;99.90;;;;;;5098290;28;20454;-70
2021/12/02 01:31:05;;;;;;;1.83;0.80;;;4.10;99.90;;;;;;5098402;28;20469;-71
2021/12/02 01:33:35;;;;;;;1.10;0.80;;;4.20;99.90;;;;;;5098380;28;20759;-71
2021/12/02 01:36:04;;;;;;;1.23;0.97;;;4.30;99.90;;;;;;5098218;28;20454;-70
2021/12/02 01:38:32;;;;;;;0.90;0.60;;;4.30;99.90;;;;;;5098371;28;20471;-70
2021/12/02 01:41:01;;;;;;;0.90;0.70;;;4.40;99.90;;;;;;5098231;28;20460;-71
2021/12/02 01:43:44;;;;;;;2.70;0.90;;;4.40;99.90;;;;;;5098186;28;20484;-71
2021/12/02 01:46:11;;;;;;;1.17;0.80;;;4.40;99.90;;;;;;5098500;28;20942;-71
2021/12/02 01:48:41;;;;;;;1.00;0.60;;;4.40;99.90;;;;;;5097861;28;20943;-69
2021/12/02 01:51:11;;;;;;;1.40;0.90;;;4.40;99.90;;;;;;5097841;28;20896;-69
2021/12/02 01:53:40;;;;;;;1.23;0.70;;;4.40;99.90;;;;;;5098120;28;20456;-71
2021/12/02 01:56:12;;;;;;;2.60;0.80;;;4.40;99.90;;;;;;5098136;28;20463;-71
2021/12/02 01:58:43;;;;;;;1.40;1.00;;;4.40;99.90;;;;;;5101055;28;20534;-70
2021/12/02 02:01:16;;;;;;;2.30;0.80;;;4.40;99.90;;;;;;5101524;28;20440;-71
2021/12/02 02:03:44;;;;;;;2.00;0.90;;;4.40;99.90;;;;;;5098236;28;20467;-69
2021/12/02 02:06:14;;;;;;;1.20;0.80;;;4.40;99.90;;;;;;5097979;28;20458;-69
2021/12/02 02:08:46;;;;;;;1.60;0.90;;;4.50;99.90;;;;;;5097688;28;20463;-72
2021/12/02 02:11:14;;;;;;;1.47;0.80;;;4.50;99.90;;;;;;5097661;28;20901;-71
2021/12/02 02:13:43;;;;;;;1.13;0.70;;;4.50;99.90;;;;;;5097763;28;20455;-71
2021/12/02 02:16:10;;;;;;;1.00;0.70;;;4.50;99.90;;;;;;5097757;28;20459;-70
2021/12/02 02:18:39;;;;;;;1.10;0.70;;;4.50;99.90;;;;;;5097322;28;20463;-69
2021/12/02 02:21:09;;;;;;;1.00;0.60;;;4.50;99.90;;;;;;5097464;28;20558;-71
2021/12/02 02:23:43;;;;;;;1.60;0.67;;;4.40;99.90;;;;;;5097195;28;20583;-72
2021/12/02 02:26:10;;;;;;;1.63;0.80;;;4.40;99.90;;;;;;5097401;28;20476;-70
2021/12/02 02:28:37;;;;;;;2.40;1.00;;;4.40;99.90;;;;;;5096938;28;20469;-71
2021/12/02 02:31:05;;;;;;;1.10;0.70;;;4.40;99.90;;;;;;5097444;28;20475;-69
2021/12/02 02:33:35;;;;;;;1.40;0.87;;;4.40;99.90;;;;;;5097316;28;20549;-70
2021/12/02 02:36:02;;;;;;;1.07;0.80;;;4.40;99.90;;;;;;5097274;28;20536;-71
2021/12/02 02:38:31;;;;;;;1.20;0.90;;;4.40;99.90;;;;;;5096155;28;20908;-70
2021/12/02 02:41:00;;;;;;;1.40;0.80;;;4.40;99.90;;;;;;5097301;28;20521;-70
2021/12/02 02:43:27;;;;;;;4.30;0.90;;;4.40;99.90;;;;;;5097172;28;20482;-70
2021/12/02 02:45:57;;;;;;;3.77;1.10;;;4.40;99.90;;;;;;5097203;28;20457;-71
2021/12/02 02:48:24;;;;;;;1.97;0.90;;;4.30;99.90;;;;;;5097471;28;20477;-70
2021/12/02 02:50:50;;;;;;;3.73;0.97;;;4.30;99.90;;;;;;5096632;28;20456;-71
2021/12/02 02:53:21;;;;;;;3.93;1.20;;;4.30;99.90;;;;;;5096772;28;20469;-70
2021/12/02 02:55:58;;;;;;;2.20;1.07;;;4.30;99.90;;;;;;5097315;28;20435;-70
2021/12/02 02:58:30;;;;;;;7.87;1.30;;;4.30;99.90;;;;;;5097106;28;20774;-70
2021/12/02 03:01:04;;;;;;;1.93;1.03;;;4.30;99.90;;;;;;5097092;28;20507;-69
2021/12/02 03:03:38;;;;;;;3.13;1.07;;;4.30;99.90;;;;;;5096697;28;20458;-69
2021/12/02 03:06:24;;;;;;;3.13;0.90;;;4.40;99.90;;;;;;5096741;28;20446;-70
2021/12/02 03:08:55;;;;;;;3.00;1.10;;;4.40;99.90;;;;;;5097291;28;20513;-71
2021/12/02 03:11:23;;;;;;;1.70;0.90;;;4.40;99.90;;;;;;5096604;28;20908;-70
2021/12/02 03:13:52;;;;;;;2.27;1.00;;;4.40;99.90;;;;;;5096569;28;20872;-70
2021/12/02 03:19:03;;;;;;;1.90;0.90;;;4.50;99.90;;;;;;5096779;28;20463;-70
2021/12/02 03:21:30;;;;;;;1.70;0.93;;;4.50;99.90;;;;;;5097461;28;20454;-70
2021/12/02 03:23:59;;;;;;;5.27;1.20;;;4.60;99.90;;;;;;5098302;28;20978;-70
2021/12/02 03:26:29;;;;;;;2.23;1.00;;;4.60;99.90;;;;;;5098030;28;20545;-70
2021/12/02 03:28:57;;;;;;;1.00;0.80;;;4.50;99.90;;;;;;5099687;28;20786;-70
2021/12/02 03:31:23;;;;;;;2.93;0.80;;;4.50;99.90;;;;;;5098962;28;20467;-70
2021/12/02 03:33:51;;;;;;;6.03;0.83;;;4.50;99.90;;;;;;5098199;28;20477;-70
2021/12/02 03:36:19;;;;;;;2.80;0.90;;;4.40;99.90;;;;;;5098893;28;20471;-69
2021/12/02 03:38:47;;;;;;;3.30;1.10;;;4.40;99.90;;;;;;5098898;28;20472;-67
2021/12/02 03:41:14;;;;;;;2.77;1.00;;;4.30;99.90;;;;;;5099558;28;20462;-68
2021/12/02 03:43:43;;;;;;;2.90;0.87;;;4.30;99.90;;;;;;5099952;28;20470;-67
2021/12/02 03:46:12;;;;;;;1.47;1.00;;;4.30;99.90;;;;;;5098925;28;20477;-69
2021/12/02 03:48:39;;;;;;;1.20;0.93;;;4.40;99.90;;;;;;5098081;28;20454;-69
2021/12/02 03:51:06;;;;;;;3.50;1.10;;;4.40;99.90;;;;;;5096759;28;20469;-68
2021/12/02 03:53:33;;;;;;;1.80;1.00;;;4.40;99.90;;;;;;5097084;28;20466;-69
2021/12/02 03:56:01;;;;;;;3.23;1.00;;;4.30;99.90;;;;;;5097146;28;20459;-68
2021/12/02 03:58:27;;;;;;;1.73;0.80;;;4.30;99.90;;;;;;5097227;28;20553;-68
2021/12/02 04:00:56;;;;;;;1.50;1.00;;;4.30;99.90;;;;;;5096969;28;20477;-67
2021/12/02 04:03:23;;;;;;;2.00;1.00;;;4.30;99.90;;;;;;5097699;28;20456;-69
2021/12/02 04:05:49;;;;;;;2.20;1.27;;;4.30;99.90;;;;;;5098152;28;20490;-69
2021/12/02 04:08:17;;;;;;;1.50;0.80;;;4.30;99.90;;;;;;5096373;28;20462;-69
2021/12/02 04:10:44;;;;;;;1.10;0.80;;;4.30;99.90;;;;;;5095266;28;20463;-69
2021/12/02 04:13:17;;;;;;;3.13;1.10;;;4.20;99.90;;;;;;5095289;28;20550;-68
2021/12/02 04:15:49;;;;;;;2.40;1.07;;;4.20;99.90;;;;;;5095116;28;20755;-69
2021/12/02 04:18:17;;;;;;;2.80;1.10;;;4.20;99.90;;;;;;5095556;28;20845;-69
2021/12/02 04:20:44;;;;;;;2.90;1.10;;;4.20;99.90;;;;;;5095148;28;20458;-68
2021/12/02 04:23:11;;;;;;;5.43;0.90;;;4.20;99.90;;;;;;5094947;28;20568;-68
2021/12/02 04:25:38;;;;;;;2.23;1.10;;;4.10;99.90;;;;;;5094895;28;20486;-68
2021/12/02 04:28:05;;;;;;;3.63;0.80;;;4.10;99.90;;;;;;5095029;28;20465;-68
2021/12/02 04:30:31;;;;;;;4.83;1.63;;;4.10;99.90;;;;;;5094616;28;20458;-68
2021/12/02 04:32:58;;;;;;;2.30;1.00;;;4.10;99.90;;;;;;5094804;28;20458;-68
2021/12/02 04:35:27;;;;;;;2.07;0.90;;;4.10;99.90;;;;;;5094445;28;20916;-68
2021/12/02 04:37:53;;;;;;;1.60;1.00;;;4.10;99.90;;;;;;5094712;28;20470;-68
2021/12/02 04:40:22;;;;;;;1.00;0.80;;;4.00;99.90;;;;;;5095073;28;20466;-68
2021/12/02 04:42:49;;;;;;;1.20;0.73;;;4.00;99.90;;;;;;5094555;28;20464;-68
2021/12/02 04:45:16;;;;;;;1.63;0.90;;;4.00;99.90;;;;;;5094900;28;20971;-68
2021/12/02 04:47:43;;;;;;;2.70;1.03;;;4.00;99.90;;;;;;5095900;28;20461;-68
2021/12/02 04:50:11;;;;;;;1.73;0.93;;;4.00;99.90;;;;;;5095169;28;20468;-68
2021/12/02 04:52:40;;;;;;;3.83;1.13;;;4.00;99.90;;;;;;5094895;28;20524;-69
2021/12/02 04:55:08;;;;;;;1.63;0.90;;;4.00;99.90;;;;;;5094428;28;20937;-68
2021/12/02 04:57:35;;;;;;;2.53;1.10;;;3.90;99.90;;;;;;5094542;28;20469;-68
2021/12/02 05:00:02;;;;;;;2.30;1.07;;;3.90;99.90;;;;;;5095258;28;20459;-68
2021/12/02 05:02:29;;;;;;;1.90;1.00;;;3.90;99.90;;;;;;5098930;28;20929;-68
2021/12/02 05:04:56;;;;;;;2.50;1.00;;;3.90;99.90;;;;;;5098561;28;20477;-67
2021/12/02 05:07:22;;;;;;;2.60;1.07;;;3.90;99.90;;;;;;5099967;28;20460;-69
2021/12/02 05:09:50;;;;;;;1.47;1.03;;;3.80;99.90;;;;;;5102191;28;20786;-68
2021/12/02 05:12:17;;;;;;;2.13;0.90;;;3.80;99.90;;;;;;5098969;28;20460;-67
2021/12/02 05:14:44;;;;;;;3.07;1.00;;;3.80;99.90;;;;;;5098467;28;20454;-68
2021/12/02 05:17:11;;;;;;;3.63;1.20;;;3.80;99.90;;;;;;5098545;28;20756;-68
2021/12/02 05:19:38;;;;;;;2.37;1.23;;;3.80;99.90;;;;;;5098519;28;20469;-68
2021/12/02 05:22:05;;;;;;;2.30;1.00;;;3.80;99.90;;;;;;5097982;28;20472;-68
2021/12/02 05:24:32;;;;;;;2.00;1.17;;;3.70;99.90;;;;;;5098304;28;20446;-68
2021/12/02 05:27:00;;;;;;;2.50;1.13;;;3.70;99.90;;;;;;5097971;28;20459;-68
2021/12/02 05:29:26;;;;;;;2.07;1.20;;;3.70;99.90;;;;;;5098365;28;20458;-68
2021/12/02 05:31:53;;;;;;;1.90;1.30;;;3.60;99.90;;;;;;5098042;28;20466;-68
2021/12/02 05:34:20;;;;;;;1.30;1.00;;;3.70;99.90;;;;;;5099038;28;20914;-69
2021/12/02 05:36:46;;;;;;;2.33;1.00;;;3.60;99.90;;;;;;5098113;28;20473;-69
2021/12/02 05:39:13;;;;;;;2.10;1.20;;;3.60;99.90;;;;;;5098256;28;20454;-69
2021/12/02 05:41:40;;;;;;;1.80;1.03;;;3.60;99.90;;;;;;5098084;28;20450;-69
2021/12/02 05:44:08;;;;;;;2.50;0.90;;;3.50;99.90;;;;;;5097937;28;20481;-68
2021/12/02 05:46:35;;;;;;;1.30;0.87;;;3.60;99.90;;;;;;5097849;28;20500;-68
2021/12/02 05:49:01;;;;;;;2.37;1.23;;;3.50;99.90;;;;;;5098018;28;20453;-68
2021/12/02 05:51:28;;;;;;;1.13;0.93;;;3.50;99.90;;;;;;5097736;28;20921;-67
2021/12/02 05:53:55;;;;;;;2.27;1.00;;;3.50;99.90;;;;;;5098140;28;20561;-69
2021/12/02 05:56:22;;;;;;;1.37;1.03;;;3.50;99.90;;;;;;5098116;28;20453;-68
2021/12/02 05:58:48;;;;;;;1.53;1.00;;;3.50;99.90;;;;;;5099395;28;20771;-68
2021/12/02 06:01:16;;;;;;;1.20;1.00;;;3.50;99.90;;;;;;5099957;28;20480;-68
2021/12/02 06:03:43;;;;;;;2.17;1.30;;;3.50;99.90;;;;;;5100394;28;20460;-68
2021/12/02 06:06:10;;;;;;;1.20;1.07;;;3.50;99.90;;;;;;5100234;28;20506;-68
2021/12/02 06:08:37;;;;;;;1.13;1.03;;;3.50;99.90;;;;;;5099205;28;20902;-68
2021/12/02 06:11:07;;;;;;;1.10;1.00;;;3.50;99.90;;;;;;5099022;28;20462;-68
2021/12/02 06:13:33;;;;;;;3.97;1.20;;;3.50;99.90;;;;;;5098689;28;20484;-68
2021/12/02 06:16:00;;;;;;;1.27;1.17;;;3.50;99.90;;;;;;5098608;28;20461;-68
2021/12/02 06:18:28;;;;;;;1.27;1.17;;;3.50;99.90;;;;;;5097302;28;20941;-68
2021/12/02 06:20:55;;;;;;;2.43;1.00;;;3.50;99.90;;;;;;5097115;28;20462;-68
2021/12/02 06:23:22;;;;;;;4.70;1.30;;;3.50;99.90;;;;;;5096756;28;20484;-68
2021/12/02 06:25:50;;;;;;;1.60;1.40;;;3.50;99.90;;;;;;5097230;28;20846;-68
2021/12/02 06:28:18;;;;;;;1.40;1.20;;;3.50;99.90;;;;;;5096987;28;20472;-68
2021/12/02 06:30:46;;;;;;;9.83;1.47;;;3.50;99.90;;;;;;5096750;28;20949;-68
2021/12/02 06:33:13;;;;;;;2.27;1.13;;;3.50;99.90;;;;;;5096825;28;20455;-70
2021/12/02 06:35:42;;;;;;;2.63;1.40;;;3.50;99.90;;;;;;5097011;28;20454;-68
2021/12/02 06:38:09;;;;;;;1.83;1.23;;;3.50;99.90;;;;;;5096857;28;20479;-68
2021/12/02 06:40:38;;;;;;;1.60;1.20;;;3.50;99.90;;;;;;5097011;28;20538;-69
2021/12/02 06:43:06;;;;;;;4.20;1.70;;;3.40;99.90;;;;;;5096760;28;20994;-68
2021/12/02 06:45:33;;;;;;;1.60;1.13;;;3.40;99.90;;;;;;5096522;28;20484;-68
2021/12/02 06:48:00;;;;;;;2.33;1.37;;;3.40;99.90;;;;;;5096696;28;20460;-68
2021/12/02 06:50:28;;;;;;;1.93;1.30;;;3.40;99.90;;;;;;5096840;28;20484;-68
2021/12/02 06:52:56;;;;;;;2.03;0.93;;;3.30;99.90;;;;;;5096676;28;20485;-68
2021/12/02 06:55:23;;;;;;;1.20;1.10;;;3.30;99.90;;;;;;5096859;28;20453;-67
2021/12/02 06:57:50;;;;;;;6.50;1.40;;;3.30;99.90;;;;;;5096179;28;20456;-67
2021/12/02 07:00:19;;;;;;;2.13;1.20;;;3.30;99.90;;;;;;5096735;28;20921;-69
2021/12/02 07:02:47;;;;;;;4.60;1.40;;;3.30;99.90;;;;;;5096679;28;20454;-68
2021/12/02 07:05:15;;;;;;;1.90;1.33;;;3.30;99.90;;;;;;5097771;28;20477;-68
2021/12/02 07:07:42;;;;;;;1.53;1.10;;;3.20;99.90;;;;;;5096722;28;20780;-68
2021/12/02 07:10:13;;;;;;;1.83;1.20;;;3.20;99.90;;;;;;5096282;28;20487;-68
2021/12/02 07:12:41;;;;;;;1.60;1.47;;;3.20;99.90;;;;;;5096475;28;20448;-68
2021/12/02 07:15:15;;;;;;;2.93;1.40;;;3.20;99.90;;;;;;5095972;28;20457;-68
2021/12/02 07:17:42;;;;;;;1.80;1.20;;;3.20;99.90;;;;;;5096308;28;20455;-68
2021/12/02 07:20:10;;;;;;;3.07;1.60;;;3.20;99.90;;;;;;5096022;28;20922;-68
2021/12/02 07:22:37;;;;;;;2.37;1.60;;;3.20;99.90;;;;;;5095040;28;20488;-68
2021/12/02 07:25:06;;;;;;;2.30;1.27;;;3.20;99.90;;;;;;5096064;28;20451;-69
2021/12/02 07:27:34;;;;;;;2.80;1.23;;;3.20;99.90;;;;;;5095784;28;20477;-69
2021/12/02 07:30:01;;;;;;;1.30;1.00;;;3.20;99.90;;;;;;5096712;28;20466;-68
2021/12/02 07:32:33;;;;;;;2.03;1.60;;;3.20;99.90;;;;;;5096138;28;20471;-67
2021/12/02 07:35:03;;;;;;;1.73;1.30;;;3.20;99.90;;;;;;5095747;28;20464;-69
2021/12/02 07:37:30;;;;;;;7.53;1.30;;;3.20;99.90;;;;;;5095355;28;20454;-68
2021/12/02 07:39:57;;;;;;;2.13;1.17;;;3.10;99.90;;;;;;5095618;28;20460;-69
2021/12/02 07:42:24;;;;;;;1.70;1.40;;;3.10;99.90;;;;;;5095528;28;20458;-69
2021/12/02 07:44:53;;;;;;;2.43;1.17;;;3.10;99.90;;;;;;5095472;28;20458;-68
2021/12/02 07:47:20;;;;;;;1.87;1.20;;;3.10;99.90;;;;;;5095639;28;20496;-68
2021/12/02 07:49:49;;;;;;;2.33;1.50;;;3.10;99.90;;;;;;5095586;28;20461;-67
2021/12/02 07:52:19;;;;;;;1.77;1.40;;;3.10;99.90;;;;;;5095812;28;20457;-69
2021/12/02 07:54:48;;;;;;;2.97;1.67;;;3.10;99.90;;;;;;5096492;28;20453;-68
2021/12/02 07:57:14;;;;;;;1.50;1.10;;;3.10;99.90;;;;;;5095220;28;20480;-68
2021/12/02 07:59:41;;;;;;;3.53;1.40;;;3.20;99.90;;;;;;5095602;28;20474;-68
2021/12/02 08:02:15;;;;;;;2.63;1.40;;;3.20;99.90;;;;;;5095157;28;20471;-69
2021/12/02 08:04:42;;;;;;;6.30;1.73;;;3.10;99.90;;;;;;5095481;28;20446;-69
2021/12/02 08:07:09;;;;;;;1.93;1.20;;;3.20;99.90;;;;;;5094792;28;20478;-67
2021/12/02 08:09:35;;;;;;;2.30;1.20;;;3.20;99.90;;;;;;5095299;28;20458;-69
2021/12/02 08:12:05;;;;;;;5.33;1.37;;;3.20;99.90;;;;;;5095413;28;20455;-68
2021/12/02 08:14:31;;;;;;;3.67;1.57;;;3.20;99.90;;;;;;5094827;28;20472;-69
2021/12/02 08:16:58;;;;;;;2.40;1.20;;;3.20;99.90;;;;;;5094729;28;20505;-69
2021/12/02 08:19:26;;;;;;;2.50;1.23;;;3.20;99.90;;;;;;5096409;28;20489;-68
2021/12/02 08:21:54;;;;;;;4.03;1.10;;;3.20;99.90;;;;;;5095317;28;20451;-69
2021/12/02 08:24:22;;;;;;;3.00;1.40;;;3.20;99.90;;;;;;5094971;28;20562;-69
2021/12/02 08:26:49;;;;;;;2.77;1.50;;;3.10;99.90;;;;;;5094331;28;20500;-68
2021/12/02 08:29:16;;;;;;;4.10;1.10;;;3.10;99.90;;;;;;5094814;28;20520;-69
2021/12/02 08:31:43;;;;;;;1.47;1.13;;;3.00;99.90;;;;;;5094350;28;20458;-69
2021/12/02 08:34:10;;;;;;;4.77;1.37;;;3.00;99.90;;;;;;5094161;28;20456;-67
2021/12/02 08:36:44;;;;;;;1.60;1.20;;;3.00;99.90;;;;;;5094299;28;20450;-69
2021/12/02 08:39:16;;;;;;;2.57;1.50;;;3.00;99.90;;;;;;5094845;28;20800;-68
2021/12/02 08:41:45;;;;;;;1.53;1.23;;;3.00;99.90;;;;;;5094670;28;20477;-69
2021/12/02 08:44:13;;;;;;;2.50;1.37;;;3.00;99.90;;;;;;5094535;28;20461;-68
2021/12/02 08:46:40;;;;;;;1.87;1.00;;;3.00;99.90;;;;;;5094569;28;20575;-68
2021/12/02 08:49:07;;;;;;;1.93;1.30;;;3.00;99.90;;;;;;5094572;28;20782;-68
2021/12/02 08:51:34;;;;;;;1.20;1.00;;;2.90;99.90;;;;;;5094644;28;20770;-68
2021/12/02 08:54:02;;;;;;;6.60;1.67;;;2.90;99.90;;;;;;5094492;28;20474;-69
2021/12/02 08:56:29;;;;;;;1.53;1.10;;;2.90;99.90;;;;;;5094607;28;20461;-69
2021/12/02 08:58:56;;;;;;;3.30;1.30;;;2.90;99.90;;;;;;5094745;28;20469;-68
2021/12/02 09:01:22;;;;;;;2.43;1.50;;;2.90;99.90;;;;;;5094076;28;20464;-68
2021/12/02 09:03:49;;;;;;;3.10;2.80;;;2.90;99.90;;;;;;5094884;28;20458;-68
2021/12/02 09:06:21;;;;;;;2.33;1.10;;;2.90;99.90;;;;;;5094504;28;20492;-69
2021/12/02 09:08:47;;;;;;;2.97;1.77;;;2.90;99.90;;;;;;5094354;28;20450;-69
2021/12/02 09:11:16;;;;;;;1.70;1.40;;;2.80;99.90;;;;;;5094159;28;20935;-68
2021/12/02 09:13:42;;;;;;;1.73;1.27;;;2.80;99.90;;;;;;5094770;28;20468;-68
2021/12/02 09:16:09;;;;;;;2.40;1.20;;;2.80;99.90;;;;;;5094162;28;20453;-67
2021/12/02 09:18:36;;;;;;;2.33;1.20;;;2.80;99.90;;;;;;5094417;28;20456;-69
2021/12/02 09:21:03;;;;;;;3.07;1.57;;;2.80;99.90;;;;;;5094549;28;20456;-69
2021/12/02 09:23:29;;;;;;;2.70;1.60;;;2.80;99.90;;;;;;5094073;28;20982;-68
2021/12/02 09:25:56;;;;;;;1.83;1.20;;;2.80;99.90;;;;;;5093476;28;20481;-68
2021/12/02 09:28:24;;;;;;;1.40;1.20;;;2.80;99.90;;;;;;5094265;28;20461;-68
2021/12/02 09:30:51;;;;;;;2.90;1.30;;;2.80;99.90;;;;;;5094047;28;20753;-68
2021/12/02 09:33:19;;;;;;;2.20;1.20;;;2.80;99.90;;;;;;5094267;28;20652;-68
2021/12/02 09:35:46;;;;;;;4.03;1.80;;;2.80;99.90;;;;;;5093962;28;20789;-69
2021/12/02 09:38:13;;;;;;;2.70;1.70;;;2.80;99.90;;;;;;5094332;28;20462;-68
2021/12/02 09:40:41;;;;;;;5.10;1.50;;;2.80;99.90;;;;;;5093716;28;20521;-69
2021/12/02 09:43:11;;;;;;;3.70;1.90;;;2.90;99.90;;;;;;5093915;28;20449;-68
2021/12/02 09:45:39;;;;;;;2.90;1.20;;;2.90;99.90;;;;;;5093778;28;20460;-69
2021/12/02 09:48:08;;;;;;;2.80;1.23;;;2.90;99.90;;;;;;5097818;28;20453;-69
2021/12/02 09:50:36;;;;;;;3.83;1.70;;;2.90;99.90;;;;;;5097724;28;20905;-69
2021/12/02 09:53:07;;;;;;;2.07;1.20;;;2.90;99.90;;;;;;5101041;28;20833;-69
2021/12/02 09:55:41;;;;;;;2.57;1.30;;;3.00;99.90;;;;;;5097882;28;20809;-68
2021/12/02 09:58:13;;;;;;;2.47;1.10;;;3.00;99.90;;;;;;5097461;28;20435;-68
2021/12/02 10:00:43;;;;;;;1.70;1.20;;;3.00;99.90;;;;;;5097311;28;20897;-69
2021/12/02 10:03:20;;;;;;;1.50;1.20;;;3.00;99.90;;;;;;5097618;28;20439;-69
2021/12/02 10:05:53;;;;;;;1.83;1.23;;;3.10;99.90;;;;;;5098819;28;20441;-68
2021/12/02 10:08:23;;;;;;;5.33;1.40;;;3.10;99.90;;;;;;5098130;28;20442;-68
2021/12/02 10:10:55;;;;;;;2.33;1.67;;;3.20;99.90;;;;;;5097481;28;20557;-68
2021/12/02 10:13:27;;;;;;;2.60;1.20;;;3.20;99.90;;;;;;5097589;28;20468;-68
2021/12/02 10:16:14;;;;;;;3.10;1.40;;;3.20;99.90;;;;;;5097061;28;20948;-67
2021/12/02 10:21:28;;;;;;;2.87;1.53;;;3.20;99.90;;;;;;5094443;28;20910;-68
2021/12/02 10:23:59;;;;;;;1.43;1.00;;;3.20;99.90;;;;;;5096543;28;20494;-69
2021/12/02 10:26:26;;;;;;;5.03;1.43;;;3.20;99.90;;;;;;5097265;28;20473;-68
2021/12/02 10:28:53;;;;;;;2.63;1.37;;;3.20;99.90;;;;;;5098788;28;20477;-69
2021/12/02 10:31:24;;;;;;;2.23;1.40;;;3.20;99.90;;;;;;5097331;28;20457;-68
2021/12/02 10:33:56;;;;;;;3.53;1.03;;;3.20;99.90;;;;;;5097021;28;20892;-68
2021/12/02 10:36:27;;;;;;;4.57;1.73;;;3.30;99.90;;;;;;5096697;28;20450;-69
2021/12/02 10:38:55;;;;;;;1.00;0.90;;;3.30;99.90;;;;;;5097007;28;20835;-68
2021/12/02 10:41:26;;;;;;;2.70;1.10;;;3.30;99.90;;;;;;5096820;28;20539;-67
2021/12/02 10:44:15;;;;;;;2.60;1.30;;;3.40;99.90;;;;;;5096977;28;20451;-68
2021/12/02 10:47:00;;;;;;;4.40;1.33;;;3.50;99.90;;;;;;5096346;28;20945;-69
2021/12/02 10:49:28;;;;;;;6.37;1.20;;;3.40;99.90;;;;;;5096723;28;20831;-68
2021/12/02 10:51:56;;;;;;;2.77;1.37;;;3.40;99.90;;;;;;5096605;28;20460;-69
2021/12/02 10:54:25;;;;;;;2.00;1.10;;;3.40;99.90;;;;;;5096367;28;20457;-69
2021/12/02 10:56:53;;;;;;;1.97;1.20;;;3.40;99.90;;;;;;5096317;28;20462;-68
2021/12/02 10:59:35;;;;;;;1.93;1.00;;;3.40;99.90;;;;;;5095298;28;20967;-69
2021/12/02 11:02:06;;;;;;;3.77;1.20;;;3.40;99.90;;;;;;5096038;28;20882;-68
2021/12/02 11:04:38;;;;;;;2.33;1.13;;;3.50;99.90;;;;;;5096187;28;20453;-69
2021/12/02 11:07:10;;;;;;;1.40;1.20;;;3.50;99.90;;;;;;5096187;28;20493;-68
2021/12/02 11:09:37;;;;;;;4.53;1.47;;;3.50;99.90;;;;;;5096727;28;20446;-68
2021/12/02 11:12:08;;;;;;;2.70;1.20;;;3.50;99.90;;;;;;5096310;28;20828;-69
2021/12/02 11:14:35;;;;;;;1.70;1.10;;;3.60;99.90;;;;;;5096961;28;20459;-69
2021/12/02 11:17:09;;;;;;;4.30;1.20;;;3.60;99.90;;;;;;5096515;28;20458;-68
2021/12/02 11:19:39;;;;;;;1.70;1.13;;;3.60;99.90;;;;;;5096200;28;20441;-68
2021/12/02 11:22:09;;;;;;;2.07;1.10;;;3.70;99.90;;;;;;5095967;28;20459;-69
2021/12/02 11:24:36;;;;;;;3.50;1.40;;;3.70;99.90;;;;;;5095996;28;20548;-69
2021/12/02 11:27:08;;;;;;;1.60;1.10;;;3.70;99.90;;;;;;5097323;28;20482;-68
2021/12/02 11:29:50;;;;;;;1.83;1.20;;;3.70;99.90;;;;;;5098105;28;20483;-69
2021/12/02 11:32:43;;;;;;;3.33;1.73;;;3.70;99.90;;;;;;5097982;28;20443;-68
2021/12/02 11:35:19;;;;;;;5.50;1.60;;;3.70;99.90;;;;;;5097791;28;20759;-68
2021/12/02 11:37:48;;;;;;;1.50;1.00;;;3.70;99.90;;;;;;5096525;28;20438;-69
2021/12/02 11:40:17;;;;;;;2.90;1.30;;;3.80;99.90;;;;;;5096517;28;20551;-69
2021/12/02 11:42:44;;;;;;;3.33;1.20;;;3.80;99.90;;;;;;5098410;28;20553;-69
2021/12/02 11:45:14;;;;;;;5.50;1.20;;;3.90;99.90;;;;;;5098133;28;20469;-66
2021/12/02 11:47:43;;;;;;;2.07;0.93;;;4.00;99.90;;;;;;5098187;28;20779;-67
2021/12/02 11:50:13;;;;;;;1.57;1.10;;;4.00;99.90;;;;;;5095633;28;20784;-69
2021/12/02 11:52:42;;;;;;;1.97;1.30;;;4.00;99.90;;;;;;5095957;28;20460;-68
2021/12/02 11:55:11;;;;;;;2.60;1.30;;;4.10;99.90;;;;;;5095523;28;20767;-67
2021/12/02 11:57:38;;;;;;;2.73;1.30;;;4.50;99.90;;;;;;5095360;28;20782;-67
2021/12/02 12:00:11;;;;;;;4.73;1.07;;;5.40;99.90;;;;;;5095276;28;20461;-67
2021/12/02 12:02:46;;;;;;;2.53;0.83;;;6.10;99.90;;;;;;5095361;28;20897;-67
2021/12/02 12:05:16;;;;;;;2.07;1.47;;;7.00;99.90;;;;;;5095687;28;20477;-68
2021/12/02 12:07:46;;;;;;;3.80;1.60;;;7.80;99.90;;;;;;5095460;28;20805;-68
2021/12/02 12:10:20;;;;;;;2.80;1.23;;;8.30;99.90;;;;;;5095117;28;20454;-72
2021/12/02 12:12:48;;;;;;;3.67;1.63;;;8.70;99.90;;;;;;5095259;28;20469;-68
2021/12/02 12:15:36;;;;;;;5.20;1.73;;;8.90;99.90;;;;;;5095486;28;20455;-68
2021/12/02 12:18:04;;;;;;;2.97;0.93;;;8.50;99.90;;;;;;5095015;28;20450;-67
2021/12/02 12:20:52;;;;;;;1.80;1.30;;;8.20;99.90;;;;;;5096383;28;20475;-68
2021/12/02 12:23:40;;;;;;;1.60;0.90;;;8.40;99.90;;;;;;5097568;28;20547;-68
2021/12/02 12:26:18;;;;;;;1.90;1.10;;;8.80;99.90;;;;;;5097927;28;20441;-67
2021/12/02 12:29:30;;;;;;;2.20;1.53;;;9.10;99.90;;;;;;5097569;28;20463;-68
2021/12/02 12:35:46;;;;;;;1.60;1.03;;;8.30;99.90;;;;;;5071310;28;20536;-68
2021/12/02 12:38:28;;;;;;;2.63;0.80;;;8.90;99.90;;;;;;5096059;28;20531;-68
2021/12/02 12:40:57;;;;;;;6.20;2.80;;;8.90;99.90;;;;;;5096530;28;20437;-69
2021/12/02 12:43:32;;;;;;;2.87;1.40;;;8.80;99.90;;;;;;5096472;28;20466;-68
2021/12/02 12:46:12;;;;;;;3.20;1.07;;;8.80;99.90;;;;;;5096172;28;20437;-68
2021/12/02 12:48:39;;;;;;;2.90;1.50;;;8.80;99.90;;;;;;5095295;28;20463;-67
2021/12/02 12:51:21;;;;;;;2.87;1.10;;;8.50;99.90;;;;;;5094848;28;20654;-68
2021/12/02 12:53:51;;;;;;;3.33;1.30;;;8.10;99.90;;;;;;5094774;28;20451;-68
2021/12/02 12:56:20;;;;;;;4.13;1.33;;;7.50;99.90;;;;;;5094463;28;20541;-68
2021/12/02 12:59:23;;;;;;;3.00;1.20;;;6.70;99.90;;;;;;5094737;28;20523;-69
2021/12/02 13:01:59;;;;;;;2.10;1.30;;;6.40;99.90;;;;;;5096322;28;20473;-68
2021/12/02 13:04:27;;;;;;;8.30;1.90;;;6.70;99.90;;;;;;5096086;28;20916;-68
2021/12/02 13:07:09;;;;;;;4.60;1.20;;;6.50;99.90;;;;;;5096289;28;20541;-67
2021/12/02 13:09:43;;;;;;;1.90;1.57;;;7.00;99.90;;;;;;5096233;28;20495;-68
2021/12/02 13:12:12;;;;;;;6.63;1.73;;;7.80;99.90;;;;;;5096223;28;20471;-67
2021/12/02 13:14:41;;;;;;;2.47;1.50;;;8.40;99.90;;;;;;5096494;28;20454;-68
2021/12/02 13:17:40;;;;;;;6.70;2.20;;;8.30;99.90;;;;;;5096860;28;20782;-69
2021/12/02 13:20:32;;;;;;;5.03;1.40;;;7.50;99.90;;;;;;5094766;28;20749;-69
2021/12/02 13:23:26;;;;;;;2.50;1.23;;;6.50;99.90;;;;;;5098238;28;20477;-68